createdAt,value
2018-12-26T00:04:56.746Z,100518.16
2018-12-26T00:07:38.274Z,100526.11
2018-12-26T00:15:36.374Z,100536.69
2018-12-26T00:18:05.929Z,100532.22
2018-12-26T00:20:35.424Z,100538.64
2018-12-26T00:23:04.976Z,100538.48
2018-12-26T00:25:34.610Z,100538.64
2018-12-26T00:28:04.024Z,100536.83
2018-12-26T00:30:33.674Z,100535.31
2018-12-26T00:33:03.188Z,100529.68
2018-12-26T00:35:32.590Z,100531.49
2018-12-26T00:38:01.992Z,100532.81
2018-12-26T00:40:31.999Z,100528.84
2018-12-26T00:43:01.411Z,100522.58
2018-12-26T00:45:30.877Z,100522.58
2018-12-26T00:48:00.415Z,100526.39
2018-12-26T00:50:29.861Z,100526.39
2018-12-26T00:53:18.333Z,100539.13
2018-12-26T00:55:48.212Z,100539.13
2018-12-26T00:58:17.668Z,100535.16
2018-12-26T01:00:47.140Z,100546.42
2018-12-26T01:03:16.553Z,100547.25
2018-12-26T01:05:46.417Z,100552.70
2018-12-26T01:08:27.856Z,100551.52
2018-12-26T01:10:57.568Z,100555.98
2018-12-26T01:13:27.204Z,100542.91
2018-12-26T01:15:56.925Z,100531.98
2018-12-26T01:18:33.617Z,100548.83
2018-12-26T01:21:03.056Z,100548.34
2018-12-26T01:23:32.484Z,100552.11
2018-12-26T01:26:01.908Z,100559.70
2018-12-26T01:28:31.727Z,100557.05
2018-12-26T01:33:52.800Z,100558.52
2018-12-26T01:36:22.305Z,100555.39
2018-12-26T01:38:51.794Z,100551.56
2018-12-26T01:41:21.262Z,100555.87
2018-12-26T01:43:51.305Z,100560.34
2018-12-26T01:46:20.743Z,100562.98
2018-12-26T01:48:50.201Z,100568.76
2018-12-26T01:51:19.601Z,100579.19
2018-12-26T01:53:49.012Z,100583.50
2018-12-26T01:56:18.532Z,100578.37
2018-12-26T01:58:48.362Z,100570.62
2018-12-26T02:01:17.773Z,100573.62
2018-12-26T02:03:47.235Z,100578.42
2018-12-26T02:06:16.658Z,100581.06
2018-12-26T02:08:46.119Z,100573.47
2018-12-26T02:11:15.725Z,100581.25
2018-12-26T02:13:45.166Z,100584.24
2018-12-26T02:16:14.589Z,100588.55
2018-12-26T02:18:44.039Z,100586.59
2018-12-26T02:21:13.579Z,100588.76
2018-12-26T02:23:43.023Z,100586.60
2018-12-26T02:26:12.590Z,100587.44
2018-12-26T02:28:42.087Z,100574.89
2018-12-26T02:31:11.709Z,100570.28
2018-12-26T02:33:41.139Z,100575.62
2018-12-26T02:36:11.096Z,100584.06
2018-12-26T02:38:40.511Z,100586.25
2018-12-26T02:41:10.354Z,100598.20
2018-12-26T02:43:39.926Z,100600.37
2018-12-26T02:46:09.785Z,100603.70
2018-12-26T02:48:39.280Z,100608.01
2018-12-26T02:51:08.961Z,100612.66
2018-12-26T02:53:38.364Z,100607.02
2018-12-26T02:56:08.786Z,100616.63
2018-12-26T03:01:27.354Z,100618.78
2018-12-26T03:03:56.966Z,100615.16
2018-12-26T03:09:16.941Z,100615.27
2018-12-26T03:11:46.372Z,100615.27
2018-12-26T03:14:16.030Z,100628.73
2018-12-26T03:17:04.358Z,100641.47
2018-12-26T03:22:28.100Z,100631.53
2018-12-26T03:25:17.200Z,100637.76
2018-12-26T03:28:05.642Z,100637.76
2018-12-26T03:30:35.106Z,100639.77
2018-12-26T03:33:04.725Z,100627.80
2018-12-26T03:35:34.378Z,100635.20
2018-12-26T03:38:03.794Z,100635.20
2018-12-26T03:43:28.895Z,100642.50
2018-12-26T03:45:58.742Z,100638.34
2018-12-26T03:51:35.737Z,100636.83
2018-12-26T03:54:06.141Z,100636.83
2018-12-26T03:56:35.580Z,100622.26
2018-12-26T03:59:05.146Z,100639.80
2018-12-26T04:01:34.573Z,100637.94
2018-12-26T04:04:03.998Z,100641.13
2018-12-26T04:06:33.567Z,100653.66
2018-12-26T04:09:03.323Z,100642.34
2018-12-26T04:11:32.732Z,100651.16
2018-12-26T04:14:02.216Z,100640.73
2018-12-26T04:16:51.315Z,100652.57
2018-12-26T04:19:20.805Z,100652.57
2018-12-26T04:22:09.730Z,100644.24
2018-12-26T04:24:39.619Z,100644.24
2018-12-26T04:27:15.606Z,100644.17
2018-12-26T04:29:44.805Z,100649.95
2018-12-26T04:32:14.544Z,100659.99
2018-12-26T04:34:43.943Z,100659.99
2018-12-26T04:37:13.571Z,100664.73
2018-12-26T04:39:42.968Z,100662.38
2018-12-26T04:42:32.924Z,100665.84
2018-12-26T04:45:02.707Z,100671.47
2018-12-26T04:47:32.129Z,100667.33
2018-12-26T04:50:01.576Z,100674.77
2018-12-26T04:52:31.309Z,100676.58
2018-12-26T04:55:00.790Z,100677.41
2018-12-26T04:57:41.279Z,100676.23
2018-12-26T05:00:10.847Z,100687.98
2018-12-26T05:02:40.306Z,100690.47
2018-12-26T05:05:11.745Z,100693.74
2018-12-26T05:07:41.278Z,100699.87
2018-12-26T05:10:29.755Z,100688.17
2018-12-26T05:13:02.118Z,100688.17
2018-12-26T05:15:31.598Z,100711.79
2018-12-26T05:18:01.049Z,100716.42
2018-12-26T05:20:30.478Z,100723.66
2018-12-26T05:22:59.973Z,100721.50
2018-12-26T05:25:29.605Z,100726.58
2018-12-26T05:27:59.132Z,100724.77
2018-12-26T05:30:28.555Z,100718.80
2018-12-26T05:32:58.285Z,100729.38
2018-12-26T05:35:27.789Z,100739.25
2018-12-26T05:37:57.563Z,100740.58
2018-12-26T05:40:27.285Z,100745.02
2018-12-26T05:42:56.770Z,100738.77
2018-12-26T05:48:16.298Z,100751.34
2018-12-26T05:50:45.873Z,100753.51
2018-12-26T05:53:15.310Z,100760.60
2018-12-26T05:55:44.953Z,100754.97
2018-12-26T05:58:14.423Z,100761.72
2018-12-26T06:00:43.957Z,100758.03
2018-12-26T06:03:13.408Z,100759.67
2018-12-26T06:05:42.867Z,100771.36
2018-12-26T06:08:12.608Z,100772.13
2018-12-26T06:10:42.347Z,100783.11
2018-12-26T06:13:11.932Z,100791.70
2018-12-26T06:15:51.715Z,100795.45
2018-12-26T06:18:21.225Z,100791.56
2018-12-26T06:20:50.625Z,100807.99
2018-12-26T06:25:55.689Z,100806.31
2018-12-26T06:31:06.422Z,100821.83
2018-12-26T06:33:35.923Z,100828.38
2018-12-26T06:36:05.347Z,100829.36
2018-12-26T06:38:34.881Z,100832.13
2018-12-26T06:41:04.284Z,100829.63
2018-12-26T06:43:33.689Z,100831.43
2018-12-26T06:46:03.169Z,100830.81
2018-12-26T06:48:32.686Z,100834.28
2018-12-26T06:51:02.152Z,100842.91
2018-12-26T06:53:50.601Z,100845.06
2018-12-26T06:59:10.579Z,100844.28
2018-12-26T07:01:50.198Z,100864.30
2018-12-26T07:04:19.815Z,100856.94
2018-12-26T07:06:49.668Z,100850.41
2018-12-26T07:09:19.071Z,100856.09
2018-12-26T07:11:48.596Z,100866.95
2018-12-26T07:14:18.033Z,100851.63
2018-12-26T07:16:47.892Z,100868.05
2018-12-26T07:19:17.311Z,100866.80
2018-12-26T07:21:47.929Z,100866.52
2018-12-26T07:24:17.406Z,100869.34
2018-12-26T07:26:47.304Z,100868.02
2018-12-26T07:29:16.728Z,100880.27
2018-12-26T07:31:46.152Z,100892.30
2018-12-26T07:34:15.587Z,100895.72
2018-12-26T07:36:45.086Z,100896.83
2018-12-26T07:39:14.538Z,100896.97
2018-12-26T07:41:44.098Z,100897.38
2018-12-26T07:44:13.536Z,100901.48
2018-12-26T07:46:42.981Z,100895.52
2018-12-26T07:49:12.451Z,100899.00
2018-12-26T07:51:42.023Z,100902.40
2018-12-26T07:54:11.437Z,100909.22
2018-12-26T07:56:43.371Z,100916.66
2018-12-26T07:59:12.940Z,100911.99
2018-12-26T08:01:42.605Z,100923.05
2018-12-26T08:04:12.382Z,100926.31
2018-12-26T08:06:41.976Z,100921.30
2018-12-26T08:09:11.407Z,100921.30
2018-12-26T08:11:41.083Z,100930.05
2018-12-26T08:14:10.673Z,100926.31
2018-12-26T08:16:40.322Z,100927.14
2018-12-26T08:19:12.433Z,100928.81
2018-12-26T08:21:42.057Z,100925.55
2018-12-26T08:24:11.509Z,100918.64
2018-12-26T08:26:41.165Z,100919.21
2018-12-26T08:29:10.567Z,100921.94
2018-12-26T08:31:40.469Z,100925.49
2018-12-26T08:34:10.215Z,100941.25
2018-12-26T08:36:39.776Z,100947.45
2018-12-26T08:39:09.402Z,100941.38
2018-12-26T08:41:39.066Z,100935.82
2018-12-26T08:44:10.866Z,100943.27
2018-12-26T08:46:40.286Z,100943.27
2018-12-26T08:49:10.182Z,100952.59
2018-12-26T08:52:00.163Z,100948.84
2018-12-26T08:54:29.784Z,100948.00
2018-12-26T08:57:02.457Z,100961.22
2018-12-26T08:59:31.856Z,100969.86
2018-12-26T09:02:01.517Z,100974.21
2018-12-26T09:04:50.098Z,100971.84
2018-12-26T09:07:20.320Z,100971.84
2018-12-26T09:09:49.796Z,100972.30
2018-12-26T09:12:19.282Z,100969.88
2018-12-26T09:14:48.683Z,100971.89
2018-12-26T09:17:18.354Z,100968.94
2018-12-26T09:19:47.732Z,100956.41
2018-12-26T09:22:17.222Z,100959.41
2018-12-26T09:24:46.691Z,100953.96
2018-12-26T09:27:16.497Z,100958.77
2018-12-26T09:29:45.958Z,100967.48
2018-12-26T09:32:15.546Z,100963.31
2018-12-26T09:34:44.966Z,100960.81
2018-12-26T09:37:21.973Z,100961.47
2018-12-26T09:39:51.415Z,100964.89
2018-12-26T09:42:21.188Z,100957.72
2018-12-26T09:44:54.583Z,100951.70
2018-12-26T09:47:21.978Z,100947.12
2018-12-26T09:50:02.319Z,100941.38
2018-12-26T09:52:41.155Z,100938.87
2018-12-26T09:55:29.220Z,100938.12
2018-12-26T09:57:58.773Z,100938.12
2018-12-26T10:00:31.130Z,100936.98
2018-12-26T10:03:00.682Z,100936.98
2018-12-26T10:05:30.119Z,100925.11
2018-12-26T10:07:59.568Z,100926.43
2018-12-26T10:10:31.100Z,100937.77
2018-12-26T10:13:00.504Z,100934.99
2018-12-26T10:15:29.952Z,100938.96
2018-12-26T10:18:19.959Z,100938.96
2018-12-26T10:20:49.696Z,100944.39
2018-12-26T10:23:19.103Z,100939.17
2018-12-26T10:25:48.550Z,100936.04
2018-12-26T10:28:17.962Z,100925.66
2018-12-26T10:31:06.457Z,100917.69
2018-12-26T10:33:36.147Z,100914.37
2018-12-26T10:36:05.786Z,100914.37
2018-12-26T10:38:35.443Z,100914.58
2018-12-26T10:41:04.845Z,100917.03
2018-12-26T10:43:34.296Z,100920.02
2018-12-26T10:46:22.796Z,100909.30
2018-12-26T10:54:20.681Z,100909.23
2018-12-26T10:59:39.096Z,100926.88
2018-12-26T11:02:08.510Z,100917.81
2018-12-26T11:04:38.479Z,100916.48
2018-12-26T11:07:08.137Z,100919.20
2018-12-26T11:09:39.345Z,100919.27
2018-12-26T11:12:09.128Z,100914.87
2018-12-26T11:14:38.809Z,100922.87
2018-12-26T11:17:08.416Z,100924.56
2018-12-26T11:19:38.486Z,100928.59
2018-12-26T11:22:08.196Z,100931.29
2018-12-26T11:24:37.836Z,100929.97
2018-12-26T11:27:07.323Z,100924.20
2018-12-26T11:29:36.978Z,100911.83
2018-12-26T11:32:06.380Z,100911.91
2018-12-26T11:34:36.245Z,100915.29
2018-12-26T11:37:05.697Z,100913.96
2018-12-26T11:39:35.204Z,100911.95
2018-12-26T11:42:04.606Z,100910.63
2018-12-26T11:44:34.361Z,100905.17
2018-12-26T11:47:03.890Z,100904.19
2018-12-26T11:49:33.401Z,100909.79
2018-12-26T11:52:02.978Z,100904.83
2018-12-26T11:54:32.438Z,100903.55
2018-12-26T11:57:01.963Z,100904.09
2018-12-26T11:59:31.721Z,100905.42
2018-12-26T12:02:01.631Z,100902.63
2018-12-26T12:04:31.024Z,100898.21
2018-12-26T12:07:00.578Z,100901.22
2018-12-26T12:09:30.129Z,100902.59
2018-12-26T12:11:59.636Z,100908.23
2018-12-26T12:14:32.145Z,100905.92
2018-12-26T12:17:01.578Z,100912.41
2018-12-26T12:19:30.997Z,100916.22
2018-12-26T12:22:00.459Z,100915.86
2018-12-26T12:24:29.961Z,100913.34
2018-12-26T12:26:59.667Z,100918.56
2018-12-26T12:29:35.985Z,100924.17
2018-12-26T12:32:12.329Z,100921.19
2018-12-26T12:35:00.877Z,100918.27
2018-12-26T12:40:24.851Z,100921.30
2018-12-26T12:42:54.291Z,100926.31
2018-12-26T12:45:23.948Z,100922.94
2018-12-26T12:47:53.925Z,100912.54
2018-12-26T12:50:23.356Z,100916.37
2018-12-26T12:52:52.793Z,100917.11
2018-12-26T12:55:22.270Z,100924.82
2018-12-26T12:57:51.671Z,100921.72
2018-12-26T13:00:21.074Z,100920.57
2018-12-26T13:02:50.773Z,100915.58
2018-12-26T13:05:20.228Z,100924.14
2018-12-26T13:07:49.643Z,100927.20
2018-12-26T13:10:19.096Z,100929.30
2018-12-26T13:13:07.425Z,100934.54
2018-12-26T13:15:37.340Z,100946.06
2018-12-26T13:18:06.738Z,100950.80
2018-12-26T13:20:36.209Z,100951.23
2018-12-26T13:23:05.841Z,100954.19
2018-12-26T13:25:35.334Z,100951.83
2018-12-26T13:28:04.785Z,100953.95
2018-12-26T13:30:34.255Z,100949.09
2018-12-26T13:33:03.831Z,100942.91
2018-12-26T13:35:33.233Z,100942.41
2018-12-26T13:38:02.745Z,100946.19
2018-12-26T13:40:32.310Z,100951.25
2018-12-26T13:43:01.683Z,100953.20
2018-12-26T13:45:31.109Z,100950.16
2018-12-26T13:48:00.498Z,100950.30
2018-12-26T13:50:29.978Z,100950.42
2018-12-26T13:52:59.744Z,100946.06
2018-12-26T13:55:29.183Z,100949.84
2018-12-26T13:57:58.565Z,100950.33
2018-12-26T14:00:28.039Z,100957.28
2018-12-26T14:02:57.470Z,100952.95
2018-12-26T14:05:26.977Z,100949.42
2018-12-26T14:07:56.562Z,100947.89
2018-12-26T14:10:26.356Z,100948.87
2018-12-26T14:12:55.918Z,100949.02
2018-12-26T14:15:25.375Z,100937.02
2018-12-26T14:17:55.036Z,100947.33
2018-12-26T14:20:24.821Z,100941.34
2018-12-26T14:22:54.254Z,100939.67
2018-12-26T14:25:23.987Z,100941.98
2018-12-26T14:27:53.398Z,100931.99
2018-12-26T14:30:22.875Z,100937.80
2018-12-26T14:32:52.274Z,100940.59
2018-12-26T14:35:21.690Z,100938.44
2018-12-26T14:40:25.881Z,100933.69
2018-12-26T14:43:06.677Z,100940.51
2018-12-26T14:45:36.337Z,100936.73
2018-12-26T14:48:05.765Z,100936.61
2018-12-26T14:50:35.410Z,100931.66
2018-12-26T14:56:04.694Z,100929.33
2018-12-26T14:58:36.521Z,100921.70
2018-12-26T15:01:06.177Z,100914.75
2018-12-26T15:03:35.941Z,100920.37
2018-12-26T15:06:05.348Z,100918.04
2018-12-26T15:08:35.027Z,100919.17
2018-12-26T15:11:04.766Z,100920.00
2018-12-26T15:16:23.434Z,100898.76
2018-12-26T15:18:52.943Z,100906.81
2018-12-26T15:21:22.420Z,100892.89
2018-12-26T15:23:51.871Z,100891.77
2018-12-26T15:26:21.522Z,100894.76
2018-12-26T15:28:51.064Z,100874.00
2018-12-26T15:31:20.549Z,100883.33
2018-12-26T15:33:50.002Z,100886.12
2018-12-26T15:39:10.894Z,100865.16
2018-12-26T15:41:40.647Z,100865.16
2018-12-26T15:44:10.290Z,100867.02
2018-12-26T15:46:40.060Z,100870.36
2018-12-26T15:49:09.588Z,100866.38
2018-12-26T15:51:39.207Z,100863.87
2018-12-26T15:54:10.542Z,100872.47
2018-12-26T15:56:40.064Z,100869.28
2018-12-26T15:59:09.552Z,100865.45
2018-12-26T16:01:39.181Z,100860.30
2018-12-26T16:04:28.235Z,100857.44
2018-12-26T16:07:09.169Z,100857.44
2018-12-26T16:09:40.017Z,100850.42
2018-12-26T16:12:09.439Z,100850.42
2018-12-26T16:14:39.006Z,100847.26
2018-12-26T16:17:27.558Z,100829.66
2018-12-26T16:19:57.115Z,100836.13
2018-12-26T16:22:26.572Z,100838.52
2018-12-26T16:25:15.023Z,100824.18
2018-12-26T16:27:44.526Z,100830.16
2018-12-26T16:30:16.018Z,100830.16
2018-12-26T16:32:46.910Z,100817.77
2018-12-26T16:35:16.326Z,100825.02
2018-12-26T16:37:46.248Z,100815.38
2018-12-26T16:40:16.041Z,100815.38
2018-12-26T16:42:45.516Z,100814.38
2018-12-26T16:45:14.934Z,100814.06
2018-12-26T16:47:44.381Z,100809.59
2018-12-26T16:50:13.898Z,100798.48
2018-12-26T16:52:45.338Z,100791.22
2018-12-26T16:55:14.893Z,100797.52
2018-12-26T16:57:44.346Z,100791.73
2018-12-26T17:00:15.113Z,100792.76
2018-12-26T17:02:45.515Z,100796.92
2018-12-26T17:05:27.155Z,100805.21
2018-12-26T17:08:07.991Z,100797.91
2018-12-26T17:10:49.832Z,100797.91
2018-12-26T17:13:19.305Z,100793.44
2018-12-26T17:15:48.743Z,100785.02
2018-12-26T17:18:37.107Z,100785.02
2018-12-26T17:21:06.517Z,100782.46
2018-12-26T17:23:35.952Z,100782.46
2018-12-26T17:26:05.516Z,100787.95
2018-12-26T17:28:34.913Z,100785.02
2018-12-26T17:31:04.862Z,100783.55
2018-12-26T17:33:34.355Z,100770.45
2018-12-26T17:36:04.015Z,100780.95
2018-12-26T17:38:33.440Z,100786.41
2018-12-26T17:41:02.962Z,100765.20
2018-12-26T17:43:51.739Z,100769.05
2018-12-26T17:46:24.823Z,100769.05
2018-12-26T17:48:54.322Z,100765.56
2018-12-26T17:51:24.904Z,100755.66
2018-12-26T17:54:16.883Z,100755.66
2018-12-26T17:57:24.567Z,100743.94
2018-12-26T18:00:05.135Z,100743.94
2018-12-26T18:02:46.258Z,100746.16
2018-12-26T18:05:16.063Z,100745.70
2018-12-26T18:07:45.445Z,100744.91
2018-12-26T18:10:21.091Z,100742.12
2018-12-26T18:12:50.423Z,100735.16
2018-12-26T18:15:19.830Z,100745.41
2018-12-26T18:17:49.249Z,100736.98
2018-12-26T18:20:19.321Z,100740.16
2018-12-26T18:22:48.750Z,100725.20
2018-12-26T18:25:18.228Z,100722.11
2018-12-26T18:27:47.677Z,100731.13
2018-12-26T18:30:17.243Z,100735.09
2018-12-26T18:32:46.668Z,100728.28
2018-12-26T18:35:16.215Z,100729.30
2018-12-26T18:37:45.654Z,100731.13
2018-12-26T18:40:15.101Z,100735.59
2018-12-26T18:42:44.565Z,100735.59
2018-12-26T18:45:14.334Z,100740.40
2018-12-26T18:47:43.823Z,100736.28
2018-12-26T18:50:13.403Z,100738.97
2018-12-26T18:52:45.337Z,100734.34
2018-12-26T18:55:14.782Z,100733.06
2018-12-26T18:57:44.489Z,100733.06
2018-12-26T19:00:14.037Z,100733.59
2018-12-26T19:02:43.489Z,100734.77
2018-12-26T19:05:14.095Z,100731.47
2018-12-26T19:07:43.699Z,100731.97
2018-12-26T19:10:16.136Z,100720.03
2018-12-26T19:12:45.679Z,100721.55
2018-12-26T19:15:15.127Z,100719.77
2018-12-26T19:23:07.792Z,100716.50
2018-12-26T19:25:37.611Z,100717.33
2018-12-26T19:28:07.015Z,100718.19
2018-12-26T19:30:36.434Z,100720.34
2018-12-26T19:33:05.892Z,100713.91
2018-12-26T19:35:35.317Z,100714.58
2018-12-26T19:38:04.843Z,100712.42
2018-12-26T19:40:34.329Z,100715.91
2018-12-26T19:43:03.737Z,100708.27
2018-12-26T19:45:33.211Z,100702.13
2018-12-26T19:48:02.648Z,100698.14
2018-12-26T19:50:32.359Z,100688.71
2018-12-26T19:53:02.016Z,100689.85
2018-12-26T19:55:31.677Z,100694.33
2018-12-26T19:58:01.222Z,100694.17
2018-12-26T20:00:30.735Z,100693.50
2018-12-26T20:03:00.369Z,100689.86
2018-12-26T20:05:29.846Z,100686.53
2018-12-26T20:10:47.946Z,100687.36
2018-12-26T20:13:17.409Z,100687.20
2018-12-26T20:15:46.802Z,100681.56
2018-12-26T20:18:16.682Z,100687.85
2018-12-26T20:20:46.099Z,100685.05
2018-12-26T20:23:15.610Z,100687.20
2018-12-26T20:25:45.174Z,100686.19
2018-12-26T20:28:15.027Z,100687.02
2018-12-26T20:30:44.486Z,100686.69
2018-12-26T20:33:14.019Z,100683.72
2018-12-26T20:35:43.420Z,100687.85
2018-12-26T20:38:12.968Z,100682.89
2018-12-26T20:40:42.514Z,100681.56
2018-12-26T20:43:12.072Z,100676.26
2018-12-26T20:48:32.371Z,100668.28
2018-12-26T20:51:01.832Z,100666.25
2018-12-26T20:53:46.138Z,100661.97
2018-12-26T20:58:38.149Z,100657.66
2018-12-26T21:01:07.610Z,100658.64
2018-12-26T21:03:37.116Z,100665.62
2018-12-26T21:06:06.562Z,100666.64
2018-12-26T21:08:36.063Z,100659.70
2018-12-26T21:11:05.530Z,100646.45
2018-12-26T21:13:35.036Z,100639.48
2018-12-26T21:16:04.622Z,100643.61
2018-12-26T21:18:34.046Z,100633.63
2018-12-26T21:21:03.589Z,100632.12
2018-12-26T21:23:33.002Z,100637.77
2018-12-26T21:26:02.467Z,100644.06
2018-12-26T21:28:31.909Z,100633.61
2018-12-26T21:31:01.590Z,100632.11
2018-12-26T21:33:31.022Z,100633.42
2018-12-26T21:36:00.504Z,100630.96
2018-12-26T21:38:30.037Z,100627.50
2018-12-26T21:40:59.532Z,100627.81
2018-12-26T21:43:29.042Z,100631.45
2018-12-26T21:45:58.600Z,100632.63
2018-12-26T21:48:47.417Z,100626.67
2018-12-26T21:51:28.082Z,100626.67
2018-12-26T21:53:58.567Z,100638.91
2018-12-26T21:56:28.046Z,100624.51
2018-12-26T21:58:57.871Z,100621.05
2018-12-26T22:01:27.429Z,100615.09
2018-12-26T22:03:57.416Z,100606.98
2018-12-26T22:06:26.998Z,100606.98
2018-12-26T22:08:58.966Z,100608.00
2018-12-26T22:11:30.542Z,100606.98
2018-12-26T22:14:00.098Z,100603.00
2018-12-26T22:16:53.578Z,100597.55
2018-12-26T22:19:23.334Z,100601.18
2018-12-26T22:21:52.817Z,100588.10
2018-12-26T22:24:22.259Z,100585.13
2018-12-26T22:26:51.795Z,100584.95
2018-12-26T22:29:21.247Z,100585.45
2018-12-26T22:31:51.189Z,100576.66
2018-12-26T22:34:20.616Z,100577.16
2018-12-26T22:36:50.075Z,100564.23
2018-12-26T22:39:19.622Z,100562.91
2018-12-26T22:41:49.325Z,100562.75
2018-12-26T22:44:18.765Z,100550.81
2018-12-26T22:46:48.268Z,100537.91
2018-12-26T22:49:17.690Z,100546.20
2018-12-26T22:51:47.135Z,100537.91
2018-12-26T22:54:16.653Z,100530.62
2018-12-26T22:56:46.091Z,100531.45
2018-12-26T22:59:15.494Z,100534.11
2018-12-26T23:01:45.038Z,100526.80
2018-12-26T23:04:14.454Z,100523.50
2018-12-26T23:06:43.916Z,100523.50
2018-12-26T23:11:49.042Z,100530.29
2018-12-26T23:17:01.488Z,100534.59
2018-12-26T23:19:31.229Z,100527.95
2018-12-26T23:22:21.040Z,100528.79
2018-12-26T23:24:50.532Z,100528.95
2018-12-26T23:27:22.922Z,100523.81
2018-12-26T23:29:52.399Z,100523.32
2018-12-26T23:32:21.904Z,100520.35
2018-12-26T23:34:51.319Z,100523.34
2018-12-26T23:37:20.870Z,100524.01
2018-12-26T23:39:50.323Z,100518.84
2018-12-26T23:42:19.773Z,100522.66
2018-12-26T23:44:49.425Z,100519.52
2018-12-26T23:47:18.932Z,100524.66
2018-12-26T23:49:48.359Z,100526.48
2018-12-26T23:52:17.969Z,100526.50
2018-12-26T23:54:47.507Z,100525.48
2018-12-26T23:57:17.016Z,100526.80
2018-12-26T23:59:46.518Z,100524.81
